createdAt,value
2022-11-08T00:02:29.012Z,9.85
2022-11-08T00:05:34.785Z,9.88
2022-11-08T00:08:40.591Z,9.79
2022-11-08T00:11:46.130Z,9.81
2022-11-08T00:14:35.424Z,9.63
2022-11-08T00:17:24.696Z,9.72
2022-11-08T00:20:12.649Z,9.56
2022-11-08T00:23:00.700Z,9.64
2022-11-08T00:25:54.424Z,9.70
2022-11-08T00:28:42.382Z,9.67
2022-11-08T00:31:31.620Z,9.63
2022-11-08T00:34:19.560Z,9.61
2022-11-08T00:37:07.725Z,9.56
2022-11-08T00:39:55.633Z,9.54
2022-11-08T00:42:43.534Z,9.46
2022-11-08T00:45:31.525Z,9.43
2022-11-08T00:48:20.953Z,9.55
2022-11-08T00:51:11.735Z,9.35
2022-11-08T00:53:59.973Z,9.48
2022-11-08T00:56:48.796Z,9.39
2022-11-08T00:59:36.944Z,9.37
2022-11-08T01:02:24.935Z,9.40
2022-11-08T01:05:14.304Z,9.30
2022-11-08T01:08:02.243Z,9.40
2022-11-08T01:10:51.425Z,9.32
2022-11-08T01:13:39.416Z,9.21
2022-11-08T01:16:29.717Z,9.18
2022-11-08T01:19:17.627Z,9.23
2022-11-08T01:22:06.884Z,9.20
2022-11-08T01:24:54.794Z,9.31
2022-11-08T01:27:43.480Z,9.36
2022-11-08T01:30:31.432Z,9.34
2022-11-08T01:33:19.484Z,9.29
2022-11-08T01:36:08.335Z,9.41
2022-11-08T01:38:58.060Z,9.36
2022-11-08T01:41:45.972Z,9.40
2022-11-08T01:44:33.880Z,9.45
2022-11-08T01:47:21.780Z,9.42
2022-11-08T01:50:15.451Z,9.52
2022-11-08T01:53:03.388Z,9.73
2022-11-08T01:55:53.694Z,9.81
2022-11-08T01:58:43.845Z,9.79
2022-11-08T02:01:32.467Z,9.72
2022-11-08T02:04:20.928Z,9.69
2022-11-08T02:07:10.277Z,9.66
2022-11-08T02:09:58.482Z,9.72
2022-11-08T02:12:47.808Z,9.73
2022-11-08T02:15:36.244Z,9.73
2022-11-08T02:18:26.107Z,9.67
2022-11-08T02:21:18.360Z,9.61
2022-11-08T02:24:11.593Z,9.87
2022-11-08T02:27:00.181Z,10.05
2022-11-08T02:29:48.075Z,10.18
2022-11-08T02:32:40.058Z,10.30
2022-11-08T02:35:28.725Z,10.33
2022-11-08T02:38:17.463Z,10.23
2022-11-08T02:41:07.689Z,10.31
2022-11-08T02:43:55.607Z,10.36
2022-11-08T02:46:43.504Z,10.49
2022-11-08T02:49:31.415Z,10.67
2022-11-08T02:52:19.377Z,10.77
2022-11-08T02:55:08.388Z,10.73
2022-11-08T02:57:58.165Z,10.66
2022-11-08T03:00:46.107Z,10.68
2022-11-08T03:03:34.031Z,10.70
2022-11-08T03:06:21.950Z,10.61
2022-11-08T03:09:10.895Z,10.60
2022-11-08T03:11:58.845Z,10.59
2022-11-08T03:14:48.076Z,10.78
2022-11-08T03:17:36.057Z,10.76
2022-11-08T03:20:28.254Z,10.72
2022-11-08T03:23:20.574Z,10.79
2022-11-08T03:26:08.813Z,10.84
2022-11-08T03:28:56.692Z,10.86
2022-11-08T03:31:46.017Z,10.83
2022-11-08T03:34:34.054Z,10.76
2022-11-08T03:37:22.999Z,10.68
2022-11-08T03:40:12.437Z,10.11
2022-11-08T03:43:00.418Z,10.75
2022-11-08T03:45:48.329Z,10.75
2022-11-08T03:48:37.596Z,10.75
2022-11-08T03:51:25.516Z,10.71
2022-11-08T03:54:13.462Z,10.73
2022-11-08T03:57:01.412Z,10.58
2022-11-08T03:59:49.353Z,10.66
2022-11-08T04:02:37.356Z,10.62
2022-11-08T04:05:26.763Z,10.68
2022-11-08T04:08:14.917Z,10.56
2022-11-08T04:11:23.341Z,10.51
2022-11-08T04:14:37.122Z,10.54
2022-11-08T04:17:45.102Z,10.56
2022-11-08T04:20:51.949Z,10.56
2022-11-08T04:23:39.865Z,10.51
2022-11-08T04:26:27.801Z,10.55
2022-11-08T04:29:15.856Z,10.61
2022-11-08T04:32:03.873Z,10.74
2022-11-08T04:34:51.807Z,10.73
2022-11-08T04:37:41.100Z,10.79
2022-11-08T04:40:31.389Z,10.87
2022-11-08T04:43:19.289Z,10.71
2022-11-08T04:46:09.000Z,10.96
2022-11-08T04:48:58.371Z,10.99
2022-11-08T04:51:46.274Z,10.86
2022-11-08T04:54:35.497Z,10.83
2022-11-08T04:57:23.394Z,10.90
2022-11-08T05:00:12.541Z,10.80
2022-11-08T05:03:03.049Z,10.74
2022-11-08T05:05:51.036Z,10.74
2022-11-08T05:08:39.561Z,10.73
2022-11-08T05:11:30.145Z,10.78
2022-11-08T05:14:18.204Z,10.60
2022-11-08T05:17:06.156Z,10.56
2022-11-08T05:20:11.461Z,10.38
2022-11-08T05:23:19.679Z,10.15
2022-11-08T05:26:08.032Z,9.96
2022-11-08T05:28:57.354Z,9.73
2022-11-08T05:31:45.311Z,9.42
2022-11-08T05:34:33.229Z,9.32
2022-11-08T05:37:21.167Z,9.10
2022-11-08T05:40:11.119Z,8.97
2022-11-08T05:42:59.005Z,8.87
2022-11-08T05:45:48.285Z,8.66
2022-11-08T05:48:36.920Z,8.61
2022-11-08T05:51:24.964Z,8.50
2022-11-08T05:54:13.104Z,8.41
2022-11-08T05:57:01.013Z,8.37
2022-11-08T05:59:49.012Z,8.46
2022-11-08T06:02:38.362Z,8.63
2022-11-08T06:05:26.285Z,8.88
2022-11-08T06:08:14.724Z,9.14
2022-11-08T06:11:03.611Z,9.23
2022-11-08T06:13:51.563Z,9.43
2022-11-08T06:16:39.462Z,9.69
2022-11-08T06:19:28.775Z,9.89
2022-11-08T06:22:16.799Z,9.91
2022-11-08T06:25:05.934Z,9.77
2022-11-08T06:27:53.862Z,9.62
2022-11-08T06:30:42.124Z,9.54
2022-11-08T06:33:30.751Z,8.94
2022-11-08T06:36:21.387Z,9.23
2022-11-08T06:39:09.363Z,9.23
2022-11-08T06:41:57.240Z,9.24
2022-11-08T06:44:45.125Z,9.18
2022-11-08T06:47:33.044Z,9.23
2022-11-08T06:50:20.927Z,9.16
2022-11-08T06:53:12.429Z,9.11
2022-11-08T06:56:00.355Z,9.21
2022-11-08T06:58:48.214Z,9.20
2022-11-08T07:01:36.393Z,9.14
2022-11-08T07:04:04.377Z,9.09
2022-11-08T07:06:32.066Z,9.18
2022-11-08T07:09:01.085Z,9.25
2022-11-08T07:11:28.715Z,9.20
2022-11-08T07:13:56.319Z,9.20
2022-11-08T07:16:23.965Z,9.28
2022-11-08T07:18:51.802Z,9.32
2022-11-08T07:21:19.602Z,9.42
2022-11-08T07:23:48.462Z,9.47
2022-11-08T07:26:17.422Z,9.58
2022-11-08T07:28:45.097Z,9.72
2022-11-08T07:31:12.987Z,9.80
2022-11-08T07:33:40.649Z,9.89
2022-11-08T07:36:08.869Z,10.05
2022-11-08T07:38:36.585Z,10.21
2022-11-08T07:41:04.518Z,10.31
2022-11-08T07:43:33.558Z,10.41
2022-11-08T07:46:10.270Z,10.64
2022-11-08T07:48:37.888Z,10.92
2022-11-08T07:51:05.655Z,11.20
2022-11-08T07:53:33.336Z,11.30
2022-11-08T07:56:00.960Z,11.41
2022-11-08T07:58:28.690Z,11.60
2022-11-08T08:01:01.845Z,11.85
2022-11-08T08:03:29.691Z,11.87
2022-11-08T08:06:00.973Z,11.97
2022-11-08T08:08:29.997Z,12.02
2022-11-08T08:11:00.010Z,11.98
2022-11-08T08:13:27.858Z,12.13
2022-11-08T08:16:00.851Z,12.09
2022-11-08T08:18:29.174Z,12.47
2022-11-08T08:20:57.304Z,12.59
2022-11-08T08:23:25.015Z,12.68
2022-11-08T08:25:52.796Z,12.75
2022-11-08T08:28:20.499Z,12.53
2022-11-08T08:30:48.093Z,12.50
2022-11-08T08:33:34.709Z,12.43
2022-11-08T08:36:02.634Z,12.34
2022-11-08T08:38:31.078Z,12.39
2022-11-08T08:40:58.946Z,12.39
2022-11-08T08:43:27.453Z,12.47
2022-11-08T08:45:55.242Z,12.46
2022-11-08T08:48:24.229Z,12.48
2022-11-08T08:50:51.889Z,12.46
2022-11-08T08:53:19.921Z,12.56
2022-11-08T08:55:48.192Z,12.54
2022-11-08T08:58:15.875Z,12.82
2022-11-08T09:03:34.546Z,13.09
2022-11-08T09:06:03.039Z,13.17
2022-11-08T09:08:31.581Z,13.37
2022-11-08T09:11:01.280Z,13.44
2022-11-08T09:13:31.908Z,13.32
2022-11-08T09:16:01.331Z,13.44
2022-11-08T09:18:29.357Z,13.24
2022-11-08T09:20:59.053Z,13.18
2022-11-08T09:23:27.027Z,13.04
2022-11-08T09:25:58.546Z,13.02
2022-11-08T09:28:30.986Z,13.29
2022-11-08T09:31:01.802Z,13.24
2022-11-08T09:33:29.549Z,13.41
2022-11-08T09:36:00.227Z,13.45
2022-11-08T09:38:27.961Z,13.65
2022-11-08T09:41:10.176Z,13.58
2022-11-08T09:43:48.098Z,13.69
2022-11-08T09:46:22.815Z,13.82
2022-11-08T09:48:52.631Z,13.85
2022-11-08T09:51:24.698Z,14.08
2022-11-08T09:53:54.743Z,13.95
2022-11-08T09:56:25.737Z,13.61
2022-11-08T09:58:55.328Z,13.66
2022-11-08T10:01:27.217Z,13.67
2022-11-08T10:03:58.770Z,14.08
2022-11-08T10:06:54.049Z,13.98
2022-11-08T10:09:38.060Z,13.82
2022-11-08T10:12:16.050Z,14.03
2022-11-08T10:14:58.105Z,14.07
2022-11-08T10:17:51.759Z,14.22
2022-11-08T10:20:31.539Z,14.53
2022-11-08T10:23:14.896Z,14.77
2022-11-08T10:25:47.588Z,14.76
2022-11-08T10:28:17.931Z,14.76
2022-11-08T10:30:49.643Z,14.80
2022-11-08T10:33:24.425Z,14.70
2022-11-08T10:36:02.101Z,14.88
2022-11-08T10:38:40.630Z,14.78
2022-11-08T10:41:14.849Z,14.82
2022-11-08T10:43:45.937Z,14.69
2022-11-08T10:46:27.869Z,14.90
2022-11-08T10:48:58.672Z,15.07
2022-11-08T10:51:26.326Z,14.97
2022-11-08T10:53:55.335Z,14.97
2022-11-08T10:56:24.758Z,14.89
2022-11-08T10:58:52.436Z,14.54
2022-11-08T11:01:22.761Z,15.15
2022-11-08T11:03:51.751Z,15.28
2022-11-08T11:06:25.536Z,15.31
2022-11-08T11:08:58.467Z,15.38
2022-11-08T11:11:28.763Z,15.63
2022-11-08T11:14:07.718Z,15.92
2022-11-08T11:16:36.576Z,15.60
2022-11-08T11:19:06.857Z,15.76
2022-11-08T11:21:38.966Z,16.02
2022-11-08T11:24:13.364Z,16.26
2022-11-08T11:26:46.556Z,16.42
2022-11-08T11:29:21.349Z,16.43
2022-11-08T11:31:52.078Z,16.39
2022-11-08T11:34:33.095Z,16.28
2022-11-08T11:37:06.016Z,16.14
2022-11-08T11:39:41.219Z,16.37
2022-11-08T11:42:43.819Z,16.10
2022-11-08T11:45:12.570Z,16.15
2022-11-08T11:47:47.853Z,15.95
2022-11-08T11:50:34.906Z,15.87
2022-11-08T11:53:07.602Z,16.00
2022-11-08T11:55:56.460Z,15.92
2022-11-08T11:59:05.796Z,15.77
2022-11-08T12:01:50.382Z,15.71
2022-11-08T12:04:52.110Z,15.40
2022-11-08T12:07:25.197Z,15.74
2022-11-08T12:10:07.076Z,15.56
2022-11-08T12:12:50.426Z,15.99
2022-11-08T12:15:26.923Z,16.08
2022-11-08T12:18:25.692Z,16.07
2022-11-08T12:21:07.732Z,16.22
2022-11-08T12:24:01.266Z,16.12
2022-11-08T12:26:34.613Z,16.15
2022-11-08T12:29:21.941Z,16.22
2022-11-08T12:32:00.703Z,16.24
2022-11-08T12:34:35.687Z,16.31
2022-11-08T12:37:17.675Z,16.41
2022-11-08T12:39:48.240Z,16.27
2022-11-08T12:42:28.514Z,16.38
2022-11-08T12:45:25.537Z,16.41
2022-11-08T12:47:58.214Z,16.92
2022-11-08T12:50:33.222Z,16.87
2022-11-08T12:53:30.045Z,16.53
2022-11-08T12:55:59.472Z,16.45
2022-11-08T12:58:36.368Z,16.60
2022-11-08T13:01:08.561Z,16.90
2022-11-08T13:03:57.913Z,17.08
2022-11-08T13:06:35.154Z,16.79
2022-11-08T13:09:11.284Z,16.69
2022-11-08T13:11:44.438Z,16.58
2022-11-08T13:14:16.542Z,16.18
2022-11-08T13:16:47.015Z,16.31
2022-11-08T13:19:30.508Z,16.34
2022-11-08T13:21:58.444Z,16.42
2022-11-08T13:24:49.810Z,16.33
2022-11-08T13:27:26.250Z,16.65
2022-11-08T13:29:54.315Z,16.71
2022-11-08T13:32:33.765Z,16.85
2022-11-08T13:35:08.119Z,16.99
2022-11-08T13:37:52.190Z,17.14
2022-11-08T13:40:28.117Z,17.20
2022-11-08T13:43:15.577Z,17.01
2022-11-08T13:45:45.065Z,17.08
2022-11-08T13:48:43.207Z,16.84
2022-11-08T13:51:28.498Z,16.66
2022-11-08T13:53:58.982Z,16.86
2022-11-08T13:56:46.826Z,16.48
2022-11-08T13:59:49.858Z,16.65
2022-11-08T14:02:37.543Z,16.52
2022-11-08T14:05:41.150Z,16.42
2022-11-08T14:08:23.916Z,16.52
2022-11-08T14:11:28.915Z,16.40
2022-11-08T14:14:12.495Z,16.48
2022-11-08T14:16:49.899Z,16.41
2022-11-08T14:19:22.308Z,16.51
2022-11-08T14:21:53.901Z,16.74
2022-11-08T14:24:24.720Z,16.83
2022-11-08T14:26:53.005Z,16.85
2022-11-08T14:29:23.251Z,16.73
2022-11-08T14:32:03.119Z,16.74
2022-11-08T14:34:34.032Z,16.64
2022-11-08T14:37:04.418Z,16.30
2022-11-08T14:39:33.744Z,16.61
2022-11-08T14:42:04.432Z,16.59
2022-11-08T14:44:33.235Z,16.61
2022-11-08T14:47:00.878Z,16.54
2022-11-08T14:49:33.428Z,16.54
2022-11-08T14:52:17.185Z,16.58
2022-11-08T14:54:46.568Z,16.43
2022-11-08T14:57:31.379Z,16.31
2022-11-08T14:59:59.530Z,16.23
2022-11-08T15:02:27.392Z,16.12
2022-11-08T15:04:55.172Z,16.07
2022-11-08T15:07:26.198Z,16.23
2022-11-08T15:09:54.563Z,16.10
2022-11-08T15:12:24.746Z,16.13
2022-11-08T15:14:57.553Z,15.99
2022-11-08T15:17:36.696Z,15.62
2022-11-08T15:20:08.384Z,15.49
2022-11-08T15:22:37.942Z,15.34
2022-11-08T15:25:22.837Z,15.10
2022-11-08T15:27:52.360Z,14.83
2022-11-08T15:30:21.706Z,14.74
2022-11-08T15:32:50.216Z,14.64
2022-11-08T15:35:23.542Z,14.47
2022-11-08T15:37:53.085Z,14.92
2022-11-08T15:40:28.052Z,15.18
2022-11-08T15:42:55.847Z,14.98
2022-11-08T15:45:26.656Z,15.03
2022-11-08T15:48:00.345Z,14.80
2022-11-08T15:50:30.349Z,15.24
2022-11-08T15:53:01.708Z,14.86
2022-11-08T15:55:31.474Z,14.43
2022-11-08T15:58:00.134Z,13.91
2022-11-08T16:00:30.789Z,14.28
2022-11-08T16:02:59.483Z,13.98
2022-11-08T16:05:29.133Z,14.01
2022-11-08T16:07:56.807Z,13.83
2022-11-08T16:10:32.065Z,13.61
2022-11-08T16:13:01.488Z,13.42
2022-11-08T16:15:32.135Z,13.34
2022-11-08T16:18:00.160Z,13.31
2022-11-08T16:20:29.400Z,13.19
2022-11-08T16:22:58.037Z,13.11
2022-11-08T16:25:29.004Z,12.87
2022-11-08T16:27:58.858Z,12.98
2022-11-08T16:30:27.381Z,12.88
2022-11-08T16:32:55.017Z,12.75
2022-11-08T16:35:23.360Z,12.63
2022-11-08T16:37:52.011Z,12.59
2022-11-08T16:40:21.793Z,12.53
2022-11-08T16:42:52.238Z,12.71
2022-11-08T16:45:43.462Z,12.59
2022-11-08T16:48:17.212Z,12.68
2022-11-08T16:50:45.780Z,12.57
2022-11-08T16:53:16.324Z,12.50
2022-11-08T16:55:44.087Z,12.74
2022-11-08T16:58:13.356Z,12.71
2022-11-08T17:00:43.330Z,12.70
2022-11-08T17:03:14.443Z,12.76
2022-11-08T17:05:42.350Z,12.73
2022-11-08T17:08:10.113Z,12.73
2022-11-08T17:10:37.752Z,12.78
2022-11-08T17:13:05.372Z,12.81
2022-11-08T17:15:34.614Z,12.92
2022-11-08T17:18:03.122Z,12.78
2022-11-08T17:20:30.719Z,12.81
2022-11-08T17:22:58.580Z,12.88
2022-11-08T17:25:26.253Z,12.93
2022-11-08T17:27:54.345Z,13.05
2022-11-08T17:30:26.485Z,13.02
2022-11-08T17:32:55.916Z,12.98
2022-11-08T17:35:23.643Z,13.15
2022-11-08T17:37:53.267Z,13.05
2022-11-08T17:40:21.101Z,13.18
2022-11-08T17:42:49.506Z,13.17
2022-11-08T17:45:17.307Z,13.31
2022-11-08T17:47:44.906Z,13.25
2022-11-08T17:50:13.851Z,13.19
2022-11-08T17:52:42.208Z,13.14
2022-11-08T17:55:09.919Z,13.07
2022-11-08T17:57:37.707Z,12.92
2022-11-08T18:00:09.978Z,12.90
2022-11-08T18:02:40.208Z,12.73
2022-11-08T18:05:08.561Z,12.93
2022-11-08T18:07:38.381Z,12.89
2022-11-08T18:10:09.113Z,12.91
2022-11-08T18:12:36.948Z,12.92
2022-11-08T18:15:05.105Z,13.06
2022-11-08T18:17:32.970Z,13.04
2022-11-08T18:20:00.581Z,13.06
2022-11-08T18:22:28.227Z,13.18
2022-11-08T18:24:57.216Z,13.15
2022-11-08T18:27:24.887Z,13.07
2022-11-08T18:29:52.556Z,13.13
2022-11-08T18:32:20.203Z,13.12
2022-11-08T18:34:48.840Z,13.23
2022-11-08T18:37:17.290Z,13.18
2022-11-08T18:39:44.970Z,13.29
2022-11-08T18:42:13.962Z,13.30
2022-11-08T18:44:41.662Z,13.28
2022-11-08T18:47:09.267Z,13.29
2022-11-08T18:49:36.940Z,13.21
2022-11-08T18:52:04.911Z,13.13
2022-11-08T18:54:32.922Z,13.14
2022-11-08T18:57:00.552Z,13.05
2022-11-08T18:59:29.546Z,13.04
2022-11-08T19:01:57.680Z,12.94
2022-11-08T19:04:25.541Z,12.97
2022-11-08T19:06:54.748Z,13.13
2022-11-08T19:09:23.187Z,13.12
2022-11-08T19:11:50.818Z,13.10
2022-11-08T19:14:19.324Z,13.08
2022-11-08T19:16:48.979Z,13.19
2022-11-08T19:19:16.799Z,13.13
2022-11-08T19:21:44.526Z,13.28
2022-11-08T19:24:12.291Z,13.13
2022-11-08T19:26:39.991Z,13.67
2022-11-08T19:29:10.469Z,13.73
2022-11-08T19:31:38.975Z,13.80
2022-11-08T19:34:07.985Z,14.44
2022-11-08T19:36:40.302Z,14.64
2022-11-08T19:39:08.077Z,14.46
2022-11-08T19:41:35.759Z,14.41
2022-11-08T19:44:04.940Z,14.38
2022-11-08T19:46:33.891Z,14.35
2022-11-08T19:49:03.390Z,14.27
2022-11-08T19:51:34.476Z,14.17
2022-11-08T19:54:05.751Z,13.99
2022-11-08T19:57:02.551Z,13.94
2022-11-08T19:59:21.551Z,13.97
2022-11-08T20:01:49.265Z,13.92
2022-11-08T20:04:18.344Z,14.07
2022-11-08T20:06:47.616Z,14.23
2022-11-08T20:09:15.836Z,14.21
2022-11-08T20:11:43.720Z,14.88
2022-11-08T20:14:13.965Z,14.96
2022-11-08T20:16:45.732Z,15.44
2022-11-08T20:19:17.783Z,15.70
2022-11-08T20:21:46.956Z,15.88
2022-11-08T20:24:15.951Z,15.96
2022-11-08T20:26:45.013Z,16.09
2022-11-08T20:29:14.408Z,16.26
2022-11-08T20:31:42.787Z,16.54
2022-11-08T20:34:12.867Z,16.22
2022-11-08T20:36:41.585Z,16.49
2022-11-08T20:39:11.322Z,16.56
2022-11-08T20:41:40.946Z,16.60
2022-11-08T20:44:09.967Z,16.60
2022-11-08T20:46:38.369Z,16.70
2022-11-08T20:49:06.418Z,16.83
2022-11-08T20:51:34.858Z,16.74
2022-11-08T20:54:02.572Z,16.84
2022-11-08T20:56:31.719Z,16.85
2022-11-08T20:58:59.499Z,16.85
2022-11-08T21:01:29.604Z,16.66
2022-11-08T21:04:15.998Z,16.82
2022-11-08T21:10:40.960Z,16.88
2022-11-08T21:13:21.201Z,16.82
2022-11-08T21:16:28.869Z,16.81
2022-11-08T21:19:18.176Z,16.76
2022-11-08T21:22:18.096Z,16.72
2022-11-08T21:25:06.612Z,16.52
2022-11-08T21:27:54.570Z,16.65
2022-11-08T21:30:46.534Z,16.57
2022-11-08T21:33:34.689Z,16.48
2022-11-08T21:36:26.484Z,16.42
2022-11-08T21:39:14.382Z,16.40
2022-11-08T21:42:02.257Z,16.31
2022-11-08T21:44:50.171Z,16.32
2022-11-08T21:47:39.534Z,16.30
2022-11-08T21:50:27.602Z,16.33
2022-11-08T21:53:15.592Z,16.38
2022-11-08T21:56:03.586Z,16.08
2022-11-08T21:58:51.535Z,15.39
2022-11-08T22:01:39.491Z,15.14
2022-11-08T22:04:28.761Z,14.95
2022-11-08T22:07:16.690Z,14.82
2022-11-08T22:10:04.843Z,14.62
2022-11-08T22:12:52.738Z,14.64
2022-11-08T22:15:40.685Z,14.69
2022-11-08T22:18:50.806Z,14.79
2022-11-08T22:21:44.125Z,15.08
2022-11-08T22:24:32.115Z,15.02
2022-11-08T22:27:20.088Z,15.03
2022-11-08T22:30:14.012Z,15.02
2022-11-08T22:33:04.602Z,14.89
2022-11-08T22:35:52.527Z,14.90
2022-11-08T22:38:41.787Z,15.07
2022-11-08T22:41:29.745Z,14.91
2022-11-08T22:44:18.513Z,15.04
2022-11-08T22:47:06.465Z,15.07
2022-11-08T22:49:54.377Z,15.10
2022-11-08T22:52:42.302Z,15.10
2022-11-08T22:55:31.598Z,15.06
2022-11-08T22:58:19.588Z,15.22
2022-11-08T23:01:08.081Z,15.19
2022-11-08T23:03:56.075Z,15.31
2022-11-08T23:06:44.575Z,15.34
2022-11-08T23:09:32.556Z,15.31
2022-11-08T23:12:39.534Z,15.37
2022-11-08T23:15:50.581Z,15.42
2022-11-08T23:18:38.497Z,15.32
2022-11-08T23:21:43.941Z,15.25
2022-11-08T23:24:32.549Z,15.27
2022-11-08T23:27:39.363Z,15.33
2022-11-08T23:30:44.993Z,15.36
2022-11-08T23:33:32.908Z,15.17
2022-11-08T23:36:21.175Z,15.27
2022-11-08T23:39:09.128Z,15.32
2022-11-08T23:42:29.323Z,15.20
2022-11-08T23:45:19.029Z,14.95
2022-11-08T23:48:06.926Z,15.21
2022-11-08T23:50:55.774Z,15.23
2022-11-08T23:53:43.983Z,15.27
2022-11-08T23:56:31.892Z,15.33
2022-11-08T23:59:19.849Z,15.11
